Lesparre St Laurent Medoc Airfield

LFDU · Gironde, Nouvelle-Aquitaine, Frankrijk

METAR historie LFDU · Lesparre St Laurent Medoc Airfield

Hieronder zie je METAR's van de afgelopen dagen. Kies een jaar om door oudere METAR's te bladeren, vanaf het jaar 2007.

2 juni 2023

Tijd Code Weer Temp. Zicht Plafond Wind METAR/SPECI
21:30
V
25 °C 10 km+ - 090° 090° 8 kt METAR LFBD 021930Z AUTO 09008KT 040V110 CAVOK 25/14 Q1012 NOSIG
21:00
V
26 °C 10 km+ - 070° 070° 9 kt METAR LFBD 021900Z AUTO 07009KT 030V100 9999 //////TCU 26/14 Q1012 TEMPO 3000 SHRA SCT050CB BKN060TCU
20:30
V
25 °C 10 km+ - 120° 120° 8 kt METAR LFBD 021830Z AUTO 12008KT 9999 ///CB 25/14 Q1012 TEMPO 3000 SHRA BECMG NSC
20:00
V
26 °C 10 km+ - 130° 130° 12 kt METAR LFBD 021800Z AUTO 13012KT 9999 TS //////CB 26/14 Q1012 TEMPO 3000 SHRA BECMG 07005KT
19:30
V
30 °C 10 km+ - 040° 040° 11 kt METAR LFBD 021730Z AUTO 04011KT 9999 TS ///CB 30/13 Q1011 TEMPO VRB20G30KT 3000 SHRA
19:00
V
29 °C 10 km+ - 040° 040° 11 kt METAR LFBD 021700Z AUTO 04011KT 010V090 9999 //////CB 29/13 Q1012 TEMPO VRB20G30KT 3000 SHRA
18:30
V
29 °C 10 km+ - 050° 050° 9 kt METAR LFBD 021630Z AUTO 05009KT 360V090 9999 //////CB 29/13 Q1012 TEMPO VRB20G30KT 3000 SHRA
18:00
V
29 °C 10 km+ - 050° 050° 10 kt METAR LFBD 021600Z AUTO 05010KT 020V100 CAVOK 29/12 Q1012 TEMPO VRB20G30KT 3000 SHRA BKN040CB
17:30
V
29 °C 10 km+ - 030° 030° 9 kt METAR LFBD 021530Z AUTO 03009KT 360V080 9999 //////TCU 29/13 Q1012 TEMPO VRB20G30KT 3000 SHRA BKN040CB
17:00
V
29 °C 10 km+ - 050° 050° 10 kt METAR LFBD 021500Z AUTO 05010KT 020V080 9999 //////TCU 29/14 Q1012 TEMPO VRB20G30KT 3000 SHRA BKN040CB
16:30
V
28 °C 10 km+ - 030° 030° 11 kt METAR LFBD 021430Z AUTO 03011KT 9999 ///CB 28/14 Q1012 TEMPO VRB20G30KT 3000 SHRA
16:00
V
30 °C 10 km+ - 080° 080° 6 kt METAR LFBD 021400Z AUTO 08006KT 360V150 9999 //////CB 30/12 Q1012 TEMPO VRB20G30KT 3000 SHRA
15:30
V
30 °C 10 km+ - Var Var 5 kt METAR LFBD 021330Z AUTO VRB05KT 9999 ///CB 30/11 Q1013 TEMPO VRB20G30KT 3000 SHRA
15:00
V
30 °C 10 km+ - 100° 100° 6 kt METAR LFBD 021300Z AUTO 10006KT 030V130 9999 //////CB 30/13 Q1013 TEMPO VRB20G30KT 3000 SHRA
14:30
V
30 °C 10 km+ - 060° 060° 6 kt METAR LFBD 021230Z AUTO 06006KT 360V100 9999 ///CB 30/12 Q1013 TEMPO SHRA NSC
14:00
V
29 °C 10 km+ - Var Var 5 kt METAR LFBD 021200Z AUTO VRB05KT CAVOK 29/13 Q1013 NOSIG
13:30
V
28 °C 10 km+ - 130° 130° 7 kt METAR LFBD 021130Z AUTO 13007KT 100V170 CAVOK 28/13 Q1014 NOSIG
13:00
V
28 °C 10 km+ - 090° 090° 5 kt METAR LFBD 021100Z AUTO 09005KT 340V140 CAVOK 28/13 Q1014 NOSIG
12:30
V
28 °C 10 km+ - 140° 140° 6 kt METAR LFBD 021030Z AUTO 14006KT 060V200 CAVOK 28/13 Q1014 NOSIG
12:00
V
27 °C 10 km+ - 080° 080° 6 kt METAR LFBD 021000Z AUTO 08006KT 030V120 CAVOK 27/12 Q1014 NOSIG
11:30
V
27 °C 10 km+ - 090° 090° 4 kt METAR LFBD 020930Z AUTO 09004KT 040V170 CAVOK 27/13 Q1014 NOSIG
11:00
V
26 °C 10 km+ - 090° 090° 4 kt METAR LFBD 020900Z AUTO 09004KT 360V150 CAVOK 26/13 Q1014 NOSIG
10:30
V
25 °C 10 km+ - Var Var 4 kt METAR LFBD 020830Z AUTO VRB04KT CAVOK 25/14 Q1014 NOSIG
10:00
V
24 °C 10 km+ - 080° 080° 4 kt METAR LFBD 020800Z AUTO 08004KT 040V120 CAVOK 24/15 Q1014 NOSIG
09:30
V
23 °C 10 km+ - 120° 120° 4 kt METAR LFBD 020730Z AUTO 12004KT 070V150 CAVOK 23/15 Q1014 NOSIG
09:00
V
21 °C 10 km+ - 050° 050° 4 kt METAR LFBD 020700Z AUTO 05004KT 010V090 CAVOK 21/16 Q1014 NOSIG
08:30
V
20 °C 10 km+ - 080° 080° 3 kt METAR LFBD 020630Z AUTO 08003KT 050V110 CAVOK 20/16 Q1014 NOSIG
08:00
V
19 °C 10 km+ - 040° 040° 5 kt METAR LFBD 020600Z AUTO 04005KT CAVOK 19/15 Q1014 NOSIG
07:30
V
17 °C 10 km+ - Var Var 2 kt METAR LFBD 020530Z AUTO VRB02KT CAVOK 17/15 Q1014 NOSIG
07:00
V
17 °C 10 km+ - 030° 030° 4 kt METAR LFBD 020500Z AUTO 03004KT 320V050 CAVOK 17/15 Q1014 NOSIG
06:30
V
16 °C 10 km+ - 050° 050° 6 kt METAR LFBD 020430Z AUTO 05006KT 350V060 CAVOK 16/15 Q1013 NOSIG
06:00
V
16 °C 10 km+ - 050° 050° 3 kt METAR LFBD 020400Z AUTO 05003KT CAVOK 16/14 Q1013 NOSIG
05:30
V
16 °C 10 km+ - 050° 050° 5 kt METAR LFBD 020330Z AUTO 05005KT CAVOK 16/14 Q1013 NOSIG
05:00
L
16 °C 1,4 km - 050° 050° 3 kt METAR LFBD 020300Z AUTO 05003KT 020V090 9999 1400 R23/P2300 R05/1300D R29/P2300 NSC 16/15 Q1013 NOSIG
04:30
L
16 °C 1 km - 030° 030° 3 kt METAR LFBD 020230Z AUTO 03003KT 360V060 9999 1000 R23/P2300 R05/1200D R29/P2300 NSC 16/14 Q1014 NOSIG
04:00
L
16 °C 450 m - Var Var 1 kt METAR LFBD 020200Z AUTO VRB01KT 9999 0450 R23/P2300 R05/0700U R29/P2300 BCFG NSC 16/15 Q1013 NOSIG
03:30
I
17 °C 1,6 km - 280° 280° 2 kt METAR LFBD 020130Z AUTO 28002KT 9999 1600 NSC 17/15 Q1014 NOSIG
03:00
L
17 °C 550 m - Var 000° 0 kt METAR LFBD 020100Z AUTO 00000KT 9999 0550 R23/P2300 R05/0700D R29/P2300 BCFG NSC 17/15 Q1014 NOSIG
02:30
L
17 °C 1 km - Var Var 2 kt METAR LFBD 020030Z AUTO VRB02KT 9999 1000 R23/P2300 R05/1000U R29/P2300 NSC 17/15 Q1014 NOSIG
02:00
I
18 °C 2,6 km - 030° 030° 3 kt METAR LFBD 020000Z AUTO 03003KT 9999 2600 NSC 18/16 Q1014 NOSIG
01:30
V
18 °C 10 km+ - Var Var 3 kt METAR LFBD 012330Z AUTO VRB03KT CAVOK 18/16 Q1014 NOSIG
01:00
V
18 °C 10 km+ - Var 000° 0 kt METAR LFBD 012300Z AUTO 00000KT CAVOK 18/15 Q1014 NOSIG
00:30
V
19 °C 10 km+ - Var 000° 0 kt METAR LFBD 012230Z AUTO 00000KT CAVOK 19/15 Q1014 NOSIG
00:00
V
20 °C 10 km+ - Var Var 3 kt METAR LFBD 012200Z AUTO VRB03KT CAVOK 20/16 Q1014 NOSIG

1 juni 2023

Tijd Code Weer Temp. Zicht Plafond Wind METAR/SPECI
23:30
V
21 °C 10 km+ - 060° 060° 4 kt METAR LFBD 012130Z AUTO 06004KT CAVOK 21/16 Q1014 NOSIG
23:00
V
21 °C 10 km+ - 070° 070° 4 kt METAR LFBD 012100Z AUTO 07004KT CAVOK 21/15 Q1014 NOSIG
22:30
V
22 °C 10 km+ - 060° 060° 4 kt METAR LFBD 012030Z AUTO 06004KT 030V110 CAVOK 22/15 Q1014 NOSIG
22:00
V
22 °C 10 km+ - 120° 120° 5 kt METAR LFBD 012000Z AUTO 12005KT CAVOK 22/15 Q1014 NOSIG
21:30
V
23 °C 10 km+ 11.000 ft 120° 120° 8 kt METAR LFBD 011930Z AUTO 12008KT 9999 FEW044 BKN110 BKN170 23/15 Q1013 NOSIG
21:00
V
23 °C 10 km+ - 120° 120° 5 kt METAR LFBD 011900Z AUTO 12005KT CAVOK 23/15 Q1013 TEMPO VRB15G25KT 2000 TSRA BKN040CB
20:30
V
23 °C 10 km+ - 100° 100° 5 kt METAR LFBD 011830Z AUTO 10005KT 040V120 9999 ///TCU 23/16 Q1013 TEMPO VRB15G25KT 2000 TSRA BKN040CB
20:00
V
22 °C 10 km+ - 120° 120° 3 kt METAR LFBD 011800Z AUTO 12003KT CAVOK 22/17 Q1013 TEMPO VRB15G25KT 2000 TSRA BKN040CB
19:30
V
22 °C 10 km+ 21.000 ft 150° 150° 7 kt METAR LFBD 011730Z AUTO 15007KT 9999 FEW038/// BKN210/// ///TCU 22/16 Q1013 TEMPO VRB15G25KT 2000 TSRA BKN040CB
19:00
V
23 °C 10 km+ 5.800 ft 140° 140° 7 kt METAR LFBD 011700Z AUTO 14007KT 9999 -RA FEW010/// SCT045/// BKN058/// ///CB 23/16 Q1013 TEMPO VRB15G25KT 2000 TSRA
18:30
V
24 °C 10 km+ 6.800 ft 150° 150° 10 kt METAR LFBD 011630Z AUTO 15010KT 9999 FEW044/// SCT052/// BKN068/// //////CB 24/15 Q1013 TEMPO VRB15G25KT 2000 TSRA
18:00
V
25 °C 10 km+ - 090° 090° 9 kt METAR LFBD 011600Z AUTO 09009KT 040V120 9999 ///CB 25/16 Q1013 TEMPO VRB15G25KT 2000 TSRA
17:30
V
23 °C 10 km+ - 080° 080° 9 kt METAR LFBD 011530Z AUTO 08009KT 9999 FEW033/// SCT096/// ///CB 23/16 Q1013 TEMPO VRB15G25KT 2000 TSRA
17:00
V
22 °C 10 km+ - 070° 070° 9 kt METAR LFBD 011500Z AUTO 07009KT 9999 FEW014/// SCT070/// ///CB 22/18 Q1014 TEMPO VRB15G25KT 2000 TSRA
16:30
V
25 °C 10 km+ 11.000 ft 130° 130° 6 kt METAR LFBD 011430Z AUTO 13006KT 060V180 9999 FEW038/// SCT098/// BKN110/// ///CB 25/15 Q1014 TEMPO VRB15G25KT 2000 TSRA
16:00
V
24 °C 10 km+ 10.000 ft 130° 130° 10 kt METAR LFBD 011400Z AUTO 13010KT 080V150 9999 FEW034/// SCT078/// BKN100/// ///CB 24/15 Q1014 TEMPO VRB15G25KT 2000 TSRA
15:30
V
25 °C 10 km+ 9.400 ft 070° 070° 10 kt METAR LFBD 011330Z AUTO 07010KT 030V100 9999 FEW040/// SCT066/// BKN094/// ///CB 25/15 Q1014 TEMPO VRB15G25KT 2000 TSRA
15:00
V
26 °C 10 km+ 4.200 ft 130° 130° 12 kt METAR LFBD 011300Z AUTO 13012KT 100V170 9999 BKN042/// BKN052/// OVC094/// ///CB 26/15 Q1014 TEMPO VRB15G25KT 2000 TSRA
14:30
V
25 °C 10 km+ 4.000 ft 150° 150° 13 kt METAR LFBD 011230Z AUTO 15013KT 9999 BKN040/// BKN064/// BKN086/// ///CB 25/14 Q1015 TEMPO VRB15G25KT 2000 TSRA
14:00
V
24 °C 10 km+ - 110° 110° 15 kt METAR LFBD 011200Z AUTO 11015KT 9999 FEW039/// SCT090/// ///TCU 24/14 Q1015 TEMPO VRB15G25KT 2000 TSRA BKN040CB
13:30
V
24 °C 10 km+ 8.800 ft 110° 110° 13 kt METAR LFBD 011130Z AUTO 11013KT 070V150 9999 FEW035/// SCT068/// BKN088/// ///CB 24/14 Q1015 TEMPO VRB15G25KT 1500 TSRA
13:00
V
23 °C 10 km+ 7.000 ft 110° 110° 12 kt METAR LFBD 011100Z AUTO 11012KT 080V140 9999 FEW037 SCT045 BKN070 23/12 Q1015 TEMPO VRB15G25KT 1500 TSRA BKN030CB
12:30
V
24 °C 10 km+ 3.600 ft 120° 120° 8 kt METAR LFBD 011030Z AUTO 12008KT 090V190 9999 BKN036 BKN045 24/14 Q1015 TEMPO VRB15G25KT 1500 TSRA BKN030CB
12:00
V
23 °C 10 km+ 3.200 ft 130° 130° 8 kt METAR LFBD 011000Z AUTO 13008KT 070V170 9999 BKN032 23/14 Q1015 TEMPO 4000 SHRA BKN030TCU
11:30
V
23 °C 10 km+ - 150° 150° 8 kt METAR LFBD 010930Z AUTO 15008KT 120V180 9999 FEW029 23/14 Q1015 TEMPO 4000 SHRA BKN030TCU
11:00
V
22 °C 10 km+ - 150° 150° 8 kt METAR LFBD 010900Z AUTO 15008KT 110V190 9999 SCT026 22/14 Q1015 TEMPO 4000 SHRA BKN030TCU
10:30
V
22 °C 10 km+ - 150° 150° 7 kt METAR LFBD 010830Z AUTO 15007KT 120V210 9999 FEW022 22/15 Q1015 TEMPO 4000 SHRA BKN030TCU
10:00
M
20 °C 10 km+ 2.100 ft 140° 140° 10 kt METAR LFBD 010800Z AUTO 14010KT 110V170 9999 BKN021 20/14 Q1015 NOSIG
09:30
V
20 °C 10 km+ - 160° 160° 9 kt METAR LFBD 010730Z AUTO 16009KT 9999 FEW019 20/15 Q1015 NOSIG
09:00
M
20 °C 10 km+ 1.800 ft 160° 160° 8 kt METAR LFBD 010700Z AUTO 16008KT 120V200 9999 BKN018 20/15 Q1015 NOSIG
08:30
M
18 °C 10 km+ 1.900 ft 140° 140° 8 kt METAR LFBD 010630Z AUTO 14008KT 9999 OVC019 18/14 Q1015 NOSIG
08:00
M
18 °C 10 km+ 2.000 ft 140° 140° 9 kt METAR LFBD 010600Z AUTO 14009KT 9999 OVC020 18/15 Q1015 NOSIG
07:30
M
17 °C 10 km+ 2.000 ft 140° 140° 9 kt METAR LFBD 010530Z AUTO 14009KT 9999 FEW012 OVC020 17/15 Q1015 NOSIG
07:00
M
17 °C 10 km+ 2.000 ft 140° 140° 9 kt METAR LFBD 010500Z AUTO 14009KT 9999 FEW011 OVC020 17/15 Q1014 TEMPO BKN008
06:30
M
17 °C 10 km+ 2.000 ft 140° 140° 10 kt METAR LFBD 010430Z AUTO 14010KT 9999 FEW013 OVC020 17/15 Q1014 TEMPO BKN008
06:00
M
17 °C 10 km+ 1.900 ft 140° 140° 8 kt METAR LFBD 010400Z AUTO 14008KT 9999 OVC019 17/15 Q1014 TEMPO BKN008
05:30
M
18 °C 10 km+ 1.700 ft 140° 140° 9 kt METAR LFBD 010330Z AUTO 14009KT 9999 OVC017 18/15 Q1014 TEMPO BKN008
05:00
M
18 °C 10 km+ 1.700 ft 140° 140° 9 kt METAR LFBD 010300Z AUTO 14009KT 9999 OVC017 18/15 Q1014 TEMPO BKN008
04:30
M
18 °C 10 km+ 1.200 ft 130° 130° 8 kt METAR LFBD 010230Z AUTO 13008KT 9999 OVC012 18/15 Q1014 TEMPO BKN008
04:00
M
18 °C 10 km+ 1.200 ft 130° 130° 7 kt METAR LFBD 010200Z AUTO 13007KT 9999 OVC012 18/15 Q1014 TEMPO BKN008
03:30
M
18 °C 10 km+ 1.200 ft 140° 140° 6 kt METAR LFBD 010130Z AUTO 14006KT 9999 OVC012 18/15 Q1014 TEMPO BKN008
03:00
M
18 °C 10 km+ 1.200 ft 150° 150° 5 kt METAR LFBD 010100Z AUTO 15005KT 9999 OVC012 18/15 Q1014 TEMPO BKN008
02:30
M
18 °C 10 km+ 1.000 ft 160° 160° 6 kt METAR LFBD 010030Z AUTO 16006KT 9999 OVC010 18/15 Q1014 NOSIG
02:00
M
18 °C 10 km+ 1.000 ft 160° 160° 8 kt METAR LFBD 010000Z AUTO 16008KT 9999 BKN010 18/15 Q1014 NOSIG
01:30
V
18 °C 10 km+ - 170° 170° 7 kt METAR LFBD 312330Z AUTO 17007KT 140V200 9999 FEW011 18/15 Q1014 TEMPO BKN005
01:00
V
19 °C 10 km+ - 180° 180° 9 kt METAR LFBD 312300Z AUTO 18009KT CAVOK 19/15 Q1013 TEMPO BKN005
00:30
V
20 °C 10 km+ - 120° 120° 8 kt METAR LFBD 312230Z AUTO 12008KT CAVOK 20/15 Q1013 TEMPO BKN005
00:00
V
20 °C 10 km+ - 130° 130° 9 kt METAR LFBD 312200Z AUTO 13009KT CAVOK 20/15 Q1013 TEMPO BKN005

31 mei 2023

Tijd Code Weer Temp. Zicht Plafond Wind METAR/SPECI
23:30
V
22 °C 10 km+ - 120° 120° 11 kt METAR LFBD 312130Z AUTO 12011KT CAVOK 22/14 Q1013 TEMPO BKN005
23:00
I
23 °C 1,5 km - 010° 010° 6 kt METAR LFBD 312100Z AUTO 01006KT 9999 1500 NSC 23/12 Q1013 BECMG BKN010
22:30
I
24 °C 1,5 km - 010° 010° 6 kt METAR LFBD 312030Z AUTO 01006KT 9999 1500 NSC 24/12 Q1013 BECMG BKN010
22:00
I
25 °C 2,1 km - 010° 010° 7 kt METAR LFBD 312000Z AUTO 01007KT 9999 2100 NSC 25/11 Q1013 TEMPO VRB15G25KT SCT075TCU
21:30
V
26 °C 10 km+ - 020° 020° 5 kt METAR LFBD 311930Z AUTO 02005KT CAVOK 26/11 Q1013 TEMPO VRB15G25KT SCT075TCU
21:00
V
26 °C 10 km+ - 020° 020° 7 kt METAR LFBD 311900Z AUTO 02007KT CAVOK 26/10 Q1012 TEMPO VRB15G25KT SCT075TCU
20:30
V
27 °C 10 km+ - 020° 020° 10 kt METAR LFBD 311830Z AUTO 02010KT CAVOK 27/11 Q1012 TEMPO VRB15G25KT SCT075TCU
20:00
V
28 °C 10 km+ - 010° 010° 8 kt METAR LFBD 311800Z AUTO 01008KT CAVOK 28/10 Q1012 TEMPO VRB15G25KT SCT075TCU
19:30
V
28 °C 10 km+ - 000° 000° 8 kt METAR LFBD 311730Z AUTO 36008KT 320V040 CAVOK 28/10 Q1012 TEMPO VRB15G25KT SCT075TCU
19:00
V
29 °C 10 km+ - 000° 000° 10 kt METAR LFBD 311700Z AUTO 36010KT CAVOK 29/11 Q1012 NOSIG
18:30
V
29 °C 10 km+ - 020° 020° 7 kt METAR LFBD 311630Z AUTO 02007KT 340V070 CAVOK 29/11 Q1012 NOSIG
18:00
V
29 °C 10 km+ - 040° 040° 9 kt METAR LFBD 311600Z AUTO 04009KT 010V080 CAVOK 29/10 Q1012 NOSIG
17:30
V
29 °C 10 km+ - 020° 020° 6 kt METAR LFBD 311530Z AUTO 02006KT 280V060 CAVOK 29/11 Q1012 NOSIG
17:00
V
29 °C 10 km+ - 010° 010° 6 kt METAR LFBD 311500Z AUTO 01006KT 320V080 CAVOK 29/11 Q1012 NOSIG
16:30
V
29 °C 10 km+ - 330° 330° 5 kt METAR LFBD 311430Z AUTO 33005KT 260V040 CAVOK 29/12 Q1013 NOSIG
16:00
V
28 °C 10 km+ - 350° 350° 8 kt METAR LFBD 311400Z AUTO 35008KT 290V050 CAVOK 28/13 Q1013 NOSIG
15:30
V
28 °C 10 km+ - 040° 040° 5 kt METAR LFBD 311330Z AUTO 04005KT 350V130 CAVOK 28/12 Q1013 NOSIG
15:00
V
28 °C 10 km+ - 040° 040° 5 kt METAR LFBD 311300Z AUTO 04005KT 330V110 CAVOK 28/13 Q1013 NOSIG
14:30
V
28 °C 10 km+ - 350° 350° 5 kt METAR LFBD 311230Z AUTO 35005KT 250V060 CAVOK 28/13 Q1014 NOSIG
14:00
V
27 °C 10 km+ - 000° 000° 6 kt METAR LFBD 311200Z AUTO 36006KT 300V080 CAVOK 27/12 Q1014 NOSIG
13:30
V
27 °C 10 km+ - 060° 060° 5 kt METAR LFBD 311130Z AUTO 06005KT 360V130 CAVOK 27/13 Q1014 NOSIG
13:00
V
26 °C 10 km+ - 350° 350° 6 kt METAR LFBD 311100Z AUTO 35006KT 300V030 CAVOK 26/13 Q1014 NOSIG
12:30
V
25 °C 10 km+ - 340° 340° 6 kt METAR LFBD 311030Z AUTO 34006KT 290V030 CAVOK 25/13 Q1015 NOSIG
12:00
V
25 °C 10 km+ - Var Var 4 kt METAR LFBD 311000Z AUTO VRB04KT CAVOK 25/13 Q1015 NOSIG
11:30
V
24 °C 10 km+ - Var Var 2 kt METAR LFBD 310930Z AUTO VRB02KT CAVOK 24/13 Q1015 NOSIG
11:00
V
23 °C 10 km+ - Var Var 3 kt METAR LFBD 310900Z AUTO VRB03KT CAVOK 23/13 Q1015 NOSIG
10:30
V
22 °C 10 km+ - 060° 060° 3 kt METAR LFBD 310830Z AUTO 06003KT 010V120 CAVOK 22/12 Q1015 NOSIG
10:00
V
21 °C 10 km+ - 020° 020° 5 kt METAR LFBD 310800Z AUTO 02005KT 320V060 CAVOK 21/12 Q1015 NOSIG

Wij en derden volgen je internetgedrag op onze website met cookies. Als je doorgaat, gaan we ervan uit dat je akkoord gaat met onze cookiebeleid.